createdAt,value
2022-10-23T00:00:56.328Z,13.10
2022-10-23T00:02:59.846Z,13.10
2022-10-23T00:05:02.445Z,13.20
2022-10-23T00:07:04.974Z,13.20
2022-10-23T00:09:09.990Z,13.20
2022-10-23T00:11:20.140Z,13.30
2022-10-23T00:13:23.834Z,13.30
2022-10-23T00:15:28.205Z,13.40
2022-10-23T00:17:32.787Z,13.40
2022-10-23T00:19:35.298Z,13.40
2022-10-23T00:21:38.847Z,13.50
2022-10-23T00:23:41.770Z,13.50
2022-10-23T00:25:44.304Z,13.50
2022-10-23T00:27:46.902Z,13.50
2022-10-23T00:29:49.610Z,13.60
2022-10-23T00:31:52.414Z,13.60
2022-10-23T00:33:54.976Z,13.50
2022-10-23T00:35:57.687Z,13.50
2022-10-23T00:38:00.181Z,13.50
2022-10-23T00:40:05.274Z,13.40
2022-10-23T00:42:08.015Z,13.40
2022-10-23T00:44:18.295Z,13.30
2022-10-23T00:46:20.871Z,13.30
2022-10-23T00:48:25.023Z,13.30
2022-10-23T00:50:31.273Z,13.20
2022-10-23T00:52:38.752Z,13.20
2022-10-23T00:54:43.521Z,13.20
2022-10-23T00:56:46.821Z,13.10
2022-10-23T00:58:49.378Z,13.10
2022-10-23T01:00:55.695Z,13.00
2022-10-23T01:02:58.677Z,13.00
2022-10-23T01:05:01.195Z,12.90
2022-10-23T01:07:18.763Z,12.90
2022-10-23T01:09:40.605Z,12.90
2022-10-23T01:11:53.258Z,12.80
2022-10-23T01:14:16.168Z,12.70
2022-10-23T01:16:55.990Z,12.70
2022-10-23T01:19:25.300Z,12.70
2022-10-23T01:22:02.939Z,12.70
2022-10-23T01:24:46.723Z,12.60
2022-10-23T01:27:14.548Z,12.60
2022-10-23T01:29:25.928Z,12.50
2022-10-23T01:32:15.333Z,12.50
2022-10-23T01:34:31.645Z,12.50
2022-10-23T01:36:38.587Z,12.40
2022-10-23T01:38:57.812Z,12.40
2022-10-23T01:41:33.609Z,12.40
2022-10-23T01:43:57.057Z,12.40
2022-10-23T01:46:07.892Z,12.40
2022-10-23T01:48:19.623Z,12.40
2022-10-23T01:50:47.340Z,12.30
2022-10-23T01:52:50.115Z,12.40
2022-10-23T01:54:58.289Z,12.40
2022-10-23T01:57:01.781Z,12.40
2022-10-23T01:59:11.796Z,12.40
2022-10-23T02:01:17.073Z,12.40
2022-10-23T02:03:26.982Z,12.40
2022-10-23T02:05:31.955Z,12.40
2022-10-23T02:07:35.802Z,12.40
2022-10-23T02:09:38.724Z,12.40
2022-10-23T02:11:54.679Z,12.40
2022-10-23T02:14:08.661Z,12.40
2022-10-23T02:16:34.563Z,12.40
2022-10-23T02:19:23.430Z,12.50
2022-10-23T02:22:01.865Z,12.50
2022-10-23T02:24:12.416Z,12.50
2022-10-23T02:26:35.265Z,12.50
2022-10-23T02:28:44.321Z,12.50
2022-10-23T02:30:50.135Z,12.50
2022-10-23T02:32:54.944Z,12.50
2022-10-23T02:35:53.193Z,12.40
2022-10-23T02:38:00.539Z,12.40
2022-10-23T02:40:06.418Z,12.30
2022-10-23T02:42:30.043Z,12.30
2022-10-23T02:44:37.790Z,12.30
2022-10-23T02:47:25.733Z,12.20
2022-10-23T02:50:12.085Z,12.20
2022-10-23T02:52:30.107Z,12.20
2022-10-23T02:54:39.660Z,12.20
2022-10-23T02:57:03.974Z,12.20
2022-10-23T02:59:44.343Z,12.20
2022-10-23T03:04:37.905Z,12.10
2022-10-23T03:06:40.604Z,12.10
2022-10-23T03:08:58.149Z,12.10
2022-10-23T03:11:08.451Z,12.10
2022-10-23T03:13:11.857Z,12.20
2022-10-23T03:15:17.928Z,12.20
2022-10-23T03:17:20.580Z,12.20
2022-10-23T03:19:23.150Z,12.10
2022-10-23T03:21:27.981Z,12.10
2022-10-23T03:23:31.264Z,12.20
2022-10-23T03:25:34.281Z,12.10
2022-10-23T03:27:37.805Z,12.10
2022-10-23T03:29:42.722Z,12.10
2022-10-23T03:31:45.365Z,12.10
2022-10-23T03:33:49.296Z,12.10
2022-10-23T03:35:51.825Z,12.00
2022-10-23T03:37:54.373Z,12.00
2022-10-23T03:39:59.978Z,12.10
2022-10-23T03:42:05.074Z,12.00
2022-10-23T03:44:07.724Z,12.00
2022-10-23T03:46:12.918Z,12.00
2022-10-23T03:48:15.532Z,12.00
2022-10-23T03:50:20.140Z,12.10
2022-10-23T03:54:31.373Z,12.00
2022-10-23T03:56:34.297Z,12.00
2022-10-23T03:58:36.851Z,12.00
2022-10-23T04:00:39.413Z,12.00
2022-10-23T04:02:44.258Z,12.00
2022-10-23T04:04:47.343Z,12.00
2022-10-23T04:06:49.949Z,12.00
2022-10-23T04:08:54.030Z,11.90
2022-10-23T04:10:56.995Z,11.90
2022-10-23T04:13:09.966Z,11.90
2022-10-23T04:15:13.043Z,11.90
2022-10-23T04:17:18.348Z,11.90
2022-10-23T04:19:20.972Z,11.90
2022-10-23T04:21:23.576Z,11.80
2022-10-23T04:23:26.099Z,11.80
2022-10-23T04:25:29.740Z,11.80
2022-10-23T04:27:34.418Z,11.80
2022-10-23T04:29:37.255Z,11.80
2022-10-23T04:31:39.766Z,11.70
2022-10-23T04:33:42.349Z,11.80
2022-10-23T04:35:44.957Z,11.80
2022-10-23T04:37:48.444Z,11.80
2022-10-23T04:39:50.999Z,11.80
2022-10-23T04:41:53.671Z,11.80
2022-10-23T04:43:56.899Z,11.80
2022-10-23T04:46:00.257Z,11.80
2022-10-23T04:48:03.717Z,11.80
2022-10-23T04:50:20.688Z,11.80
2022-10-23T04:52:46.752Z,11.90
2022-10-23T04:55:27.618Z,11.90
2022-10-23T04:57:53.199Z,11.90
2022-10-23T04:59:59.623Z,12.00
2022-10-23T05:02:02.234Z,11.90
2022-10-23T05:04:04.960Z,11.90
2022-10-23T05:06:20.677Z,11.90
2022-10-23T05:08:45.778Z,11.90
2022-10-23T05:10:54.499Z,11.80
2022-10-23T05:12:57.048Z,11.80
2022-10-23T05:14:59.670Z,11.80
2022-10-23T05:17:15.898Z,11.80
2022-10-23T05:19:30.708Z,11.80
2022-10-23T05:21:36.143Z,11.70
2022-10-23T05:23:43.887Z,11.70
2022-10-23T05:25:48.637Z,11.70
2022-10-23T05:27:53.425Z,11.60
2022-10-23T05:30:06.179Z,11.60
2022-10-23T05:32:14.619Z,11.60
2022-10-23T05:34:21.489Z,11.60
2022-10-23T05:36:25.618Z,11.60
2022-10-23T05:38:35.825Z,11.50
2022-10-23T05:40:45.940Z,11.50
2022-10-23T05:42:54.484Z,11.50
2022-10-23T05:45:07.459Z,11.50
2022-10-23T05:47:20.478Z,11.50
2022-10-23T05:49:47.358Z,11.40
2022-10-23T05:51:49.833Z,11.40
2022-10-23T05:54:09.683Z,11.40
2022-10-23T05:56:32.293Z,11.40
2022-10-23T05:58:43.370Z,11.40
2022-10-23T06:01:05.082Z,11.40
2022-10-23T06:03:29.743Z,11.30
2022-10-23T06:05:32.824Z,11.40
2022-10-23T06:08:00.811Z,11.40
2022-10-23T06:10:05.372Z,11.40
2022-10-23T06:12:10.101Z,11.40
2022-10-23T06:14:12.771Z,11.40
2022-10-23T06:16:19.327Z,11.50
2022-10-23T06:18:22.203Z,11.50
2022-10-23T06:20:31.992Z,11.50
2022-10-23T06:22:43.931Z,11.60
2022-10-23T06:25:07.973Z,11.60
2022-10-23T06:27:10.609Z,11.70
2022-10-23T06:29:22.729Z,11.70
2022-10-23T06:31:32.335Z,11.70
2022-10-23T06:33:35.509Z,11.80
2022-10-23T06:35:40.025Z,11.80
2022-10-23T06:37:43.053Z,11.90
2022-10-23T06:39:54.322Z,11.90
2022-10-23T06:42:24.678Z,12.00
2022-10-23T06:44:29.986Z,12.10
2022-10-23T06:46:36.327Z,12.10
2022-10-23T06:48:38.965Z,12.10
2022-10-23T06:50:47.665Z,12.20
2022-10-23T06:52:55.502Z,12.20
2022-10-23T06:54:58.341Z,12.30
2022-10-23T06:57:06.746Z,12.30
2022-10-23T06:59:17.309Z,12.40
2022-10-23T07:01:20.919Z,12.50
2022-10-23T07:03:49.019Z,12.50
2022-10-23T07:05:55.493Z,12.60
2022-10-23T07:07:58.083Z,12.70
2022-10-23T07:10:05.221Z,12.70
2022-10-23T07:12:18.970Z,12.80
2022-10-23T07:14:26.812Z,12.80
2022-10-23T07:16:30.166Z,12.90
2022-10-23T07:20:58.657Z,13.00
2022-10-23T07:23:01.545Z,13.10
2022-10-23T07:25:13.354Z,13.20
2022-10-23T07:27:16.655Z,13.20
2022-10-23T07:29:20.185Z,13.20
2022-10-23T07:31:28.165Z,13.30
2022-10-23T07:33:50.422Z,13.30
2022-10-23T07:35:54.956Z,13.40
2022-10-23T07:38:02.794Z,13.50
2022-10-23T07:40:10.289Z,13.50
2022-10-23T07:42:20.154Z,13.60
2022-10-23T07:44:26.959Z,13.60
2022-10-23T07:46:31.239Z,13.70
2022-10-23T07:48:33.739Z,13.60
2022-10-23T07:50:38.677Z,13.70
2022-10-23T07:52:41.436Z,13.70
2022-10-23T07:54:46.953Z,13.70
2022-10-23T07:56:55.504Z,13.80
2022-10-23T07:59:03.735Z,13.80
2022-10-23T08:01:16.016Z,13.90
2022-10-23T08:03:19.352Z,13.90
2022-10-23T08:05:23.108Z,14.00
2022-10-23T08:07:32.237Z,14.00
2022-10-23T08:09:41.974Z,14.10
2022-10-23T08:11:44.854Z,14.10
2022-10-23T08:13:52.676Z,14.20
2022-10-23T08:15:56.721Z,14.30
2022-10-23T08:18:25.077Z,14.30
2022-10-23T08:20:28.412Z,14.40
2022-10-23T08:22:30.949Z,14.50
2022-10-23T08:24:33.504Z,14.50
2022-10-23T08:26:36.057Z,14.60
2022-10-23T08:28:39.564Z,14.60
2022-10-23T08:30:42.226Z,14.70
2022-10-23T08:32:45.641Z,14.80
2022-10-23T08:34:49.123Z,14.90
2022-10-23T08:36:52.261Z,15.00
2022-10-23T08:38:57.903Z,15.10
2022-10-23T08:41:02.833Z,15.20
2022-10-23T08:43:34.030Z,15.40
2022-10-23T08:45:56.796Z,15.50
2022-10-23T08:49:18.262Z,15.70
2022-10-23T08:51:37.734Z,15.90
2022-10-23T08:54:12.958Z,16.10
2022-10-23T08:56:27.182Z,16.20
2022-10-23T08:59:09.862Z,16.30
2022-10-23T09:01:37.880Z,16.30
2022-10-23T09:03:40.474Z,16.40
2022-10-23T09:06:00.216Z,16.50
2022-10-23T09:08:34.507Z,16.60
2022-10-23T09:11:06.832Z,16.60
2022-10-23T09:13:35.807Z,16.60
2022-10-23T09:15:47.775Z,16.60
2022-10-23T09:17:59.236Z,16.60
2022-10-23T09:20:23.298Z,16.60
2022-10-23T09:22:26.159Z,16.50
2022-10-23T09:24:31.818Z,16.50
2022-10-23T09:26:34.490Z,16.50
2022-10-23T09:29:18.016Z,16.40
2022-10-23T09:31:21.306Z,16.40
2022-10-23T09:33:28.240Z,16.40
2022-10-23T09:35:31.335Z,16.40
2022-10-23T09:37:37.675Z,16.30
2022-10-23T09:39:40.431Z,16.30
2022-10-23T09:41:43.547Z,16.30
2022-10-23T09:43:46.638Z,16.30
2022-10-23T09:46:06.189Z,16.30
2022-10-23T09:48:23.293Z,16.40
2022-10-23T09:50:25.806Z,16.40
2022-10-23T09:52:36.414Z,16.40
2022-10-23T09:54:54.401Z,16.40
2022-10-23T09:57:20.241Z,16.50
2022-10-23T09:59:28.998Z,16.50
2022-10-23T10:01:46.277Z,16.50
2022-10-23T10:04:53.084Z,16.60
2022-10-23T10:06:59.484Z,16.70
2022-10-23T10:09:14.319Z,16.70
2022-10-23T10:11:32.915Z,16.80
2022-10-23T10:13:38.261Z,16.90
2022-10-23T10:15:52.387Z,16.90
2022-10-23T10:18:25.312Z,17.00
2022-10-23T10:20:58.138Z,17.10
2022-10-23T10:23:24.319Z,17.10
2022-10-23T10:25:37.912Z,17.10
2022-10-23T10:28:56.261Z,17.10
2022-10-23T10:31:11.370Z,17.20
2022-10-23T10:33:29.454Z,17.20
2022-10-23T10:35:49.011Z,17.30
2022-10-23T10:38:16.354Z,17.40
2022-10-23T10:40:30.942Z,17.40
2022-10-23T10:42:55.611Z,17.40
2022-10-23T10:45:45.386Z,17.50
2022-10-23T10:48:28.201Z,17.50
2022-10-23T10:51:08.724Z,17.50
2022-10-23T10:53:34.221Z,17.50
2022-10-23T10:55:42.419Z,17.50
2022-10-23T10:57:51.923Z,17.50
2022-10-23T10:59:58.958Z,17.50
2022-10-23T11:02:28.990Z,17.50
2022-10-23T11:04:41.342Z,17.60
2022-10-23T11:06:49.286Z,17.70
2022-10-23T11:08:58.006Z,17.80
2022-10-23T11:11:21.082Z,17.90
2022-10-23T11:13:38.442Z,18.10
2022-10-23T11:15:44.257Z,18.20
2022-10-23T11:17:59.053Z,18.40
2022-10-23T11:20:08.816Z,18.50
2022-10-23T11:22:34.711Z,18.60
2022-10-23T11:25:07.353Z,18.60
2022-10-23T11:27:53.675Z,18.70
2022-10-23T11:30:13.029Z,18.80
2022-10-23T11:32:21.275Z,18.80
2022-10-23T11:34:57.780Z,18.80
2022-10-23T11:37:04.726Z,18.90
2022-10-23T11:39:57.703Z,18.90
2022-10-23T11:42:15.809Z,18.90
2022-10-23T11:44:44.806Z,18.90
2022-10-23T11:47:03.487Z,18.90
2022-10-23T11:49:20.571Z,18.90
2022-10-23T11:51:32.214Z,18.90
2022-10-23T11:53:34.616Z,18.90
2022-10-23T11:55:38.221Z,18.90
2022-10-23T11:58:07.015Z,18.90
2022-10-23T12:00:23.335Z,18.90
2022-10-23T12:02:38.242Z,19.00
2022-10-23T12:04:48.661Z,18.90
2022-10-23T12:06:56.897Z,18.90
2022-10-23T12:09:06.411Z,18.90
2022-10-23T12:11:44.198Z,18.90
2022-10-23T12:13:47.053Z,18.90
2022-10-23T12:15:58.431Z,18.90
2022-10-23T12:18:15.773Z,18.80
2022-10-23T12:20:37.793Z,18.80
2022-10-23T12:23:00.825Z,18.80
2022-10-23T12:25:13.769Z,18.80
2022-10-23T12:27:51.769Z,18.90
2022-10-23T12:30:25.310Z,18.90
2022-10-23T12:32:57.443Z,19.00
2022-10-23T12:35:21.179Z,19.10
2022-10-23T12:37:41.435Z,19.10
2022-10-23T12:39:44.021Z,19.30
2022-10-23T12:41:46.565Z,19.30
2022-10-23T12:43:57.290Z,19.30
2022-10-23T12:46:17.624Z,19.40
2022-10-23T12:48:23.689Z,19.40
2022-10-23T12:50:32.175Z,19.50
2022-10-23T12:52:39.553Z,19.50
2022-10-23T12:54:42.505Z,19.50
2022-10-23T12:56:46.304Z,19.50
2022-10-23T12:59:01.406Z,19.50
2022-10-23T13:01:07.379Z,19.50
2022-10-23T13:03:11.722Z,19.50
2022-10-23T13:05:19.846Z,19.60
2022-10-23T13:07:28.268Z,19.60
2022-10-23T13:09:40.529Z,19.70
2022-10-23T13:11:52.717Z,19.70
2022-10-23T13:13:55.472Z,19.70
2022-10-23T13:15:58.051Z,19.70
2022-10-23T13:18:05.340Z,19.80
2022-10-23T13:20:29.617Z,19.80
2022-10-23T13:22:33.021Z,19.80
2022-10-23T13:24:35.572Z,19.80
2022-10-23T13:26:45.105Z,19.80
2022-10-23T13:28:48.033Z,19.80
2022-10-23T13:31:23.685Z,19.70
2022-10-23T13:34:01.254Z,19.70
2022-10-23T13:36:22.499Z,19.70
2022-10-23T13:38:37.080Z,19.60
2022-10-23T13:40:41.505Z,19.60
2022-10-23T13:42:44.252Z,19.50
2022-10-23T13:44:47.038Z,19.50
2022-10-23T13:46:52.087Z,19.50
2022-10-23T13:48:54.615Z,19.40
2022-10-23T13:51:27.604Z,19.30
2022-10-23T13:53:30.640Z,19.30
2022-10-23T13:55:34.518Z,19.30
2022-10-23T13:57:41.473Z,19.30
2022-10-23T13:59:44.240Z,19.30
2022-10-23T14:01:49.587Z,19.20
2022-10-23T14:03:53.686Z,19.20
2022-10-23T14:05:56.201Z,19.10
2022-10-23T14:07:58.740Z,19.10
2022-10-23T14:10:01.391Z,19.00
2022-10-23T14:12:04.091Z,18.90
2022-10-23T14:14:07.073Z,19.00
2022-10-23T14:16:12.300Z,18.90
2022-10-23T14:18:14.944Z,18.90
2022-10-23T14:20:19.141Z,18.80
2022-10-23T14:22:22.294Z,18.80
2022-10-23T14:24:24.918Z,18.70
2022-10-23T14:26:30.268Z,18.70
2022-10-23T14:28:33.034Z,18.60
2022-10-23T14:30:37.789Z,18.60
2022-10-23T14:32:40.882Z,18.60
2022-10-23T14:34:45.894Z,18.60
2022-10-23T14:36:50.912Z,18.60
2022-10-23T14:39:00.526Z,18.60
2022-10-23T14:41:10.143Z,18.50
2022-10-23T14:43:12.834Z,18.50
2022-10-23T14:45:15.329Z,18.40
2022-10-23T14:47:19.333Z,18.40
2022-10-23T14:49:21.963Z,18.30
2022-10-23T14:51:27.829Z,18.30
2022-10-23T14:53:30.746Z,18.30
2022-10-23T14:55:33.269Z,18.20
2022-10-23T14:57:35.886Z,18.30
2022-10-23T14:59:38.448Z,18.20
2022-10-23T15:01:45.301Z,18.20
2022-10-23T15:03:55.782Z,18.30
2022-10-23T15:05:58.524Z,18.20
2022-10-23T15:08:02.384Z,18.10
2022-10-23T15:10:07.143Z,18.10
2022-10-23T15:12:11.151Z,18.00
2022-10-23T15:14:15.332Z,18.00
2022-10-23T15:16:18.499Z,17.90
2022-10-23T15:18:21.646Z,17.90
2022-10-23T15:20:24.414Z,17.90
2022-10-23T15:22:28.243Z,17.80
2022-10-23T15:24:30.729Z,17.80
2022-10-23T15:26:33.349Z,17.70
2022-10-23T15:28:35.973Z,17.70
2022-10-23T15:30:43.403Z,17.70
2022-10-23T15:32:45.929Z,17.60
2022-10-23T15:34:49.829Z,17.60
2022-10-23T15:36:53.736Z,17.60
2022-10-23T15:38:57.040Z,17.50
2022-10-23T15:41:16.315Z,17.40
2022-10-23T15:43:19.597Z,17.40
2022-10-23T15:45:22.265Z,17.40
2022-10-23T15:47:24.756Z,17.40
2022-10-23T15:49:31.873Z,17.30
2022-10-23T15:51:34.804Z,17.20
2022-10-23T15:53:37.432Z,17.20
2022-10-23T15:55:39.948Z,17.10
2022-10-23T15:57:42.517Z,17.10
2022-10-23T15:59:45.033Z,17.10
2022-10-23T16:01:48.878Z,17.00
2022-10-23T16:03:51.544Z,17.00
2022-10-23T16:05:54.073Z,16.90
2022-10-23T16:07:56.769Z,16.90
2022-10-23T16:09:59.746Z,16.90
2022-10-23T16:12:02.346Z,16.80
2022-10-23T16:14:17.545Z,16.80
2022-10-23T16:16:20.646Z,16.80
2022-10-23T16:18:37.420Z,16.70
2022-10-23T16:20:40.629Z,16.80
2022-10-23T16:22:51.175Z,16.70
2022-10-23T16:24:53.668Z,16.70
2022-10-23T16:26:57.638Z,16.70
2022-10-23T16:29:05.408Z,16.60
2022-10-23T16:31:19.211Z,16.60
2022-10-23T16:33:22.968Z,16.60
2022-10-23T16:35:31.041Z,16.60
2022-10-23T16:37:42.965Z,16.60
2022-10-23T16:39:50.444Z,16.60
2022-10-23T16:42:14.399Z,16.60
2022-10-23T16:44:35.575Z,16.60
2022-10-23T16:46:40.559Z,16.50
2022-10-23T16:48:43.166Z,16.50
2022-10-23T16:50:45.810Z,16.50
2022-10-23T16:52:49.915Z,16.50
2022-10-23T16:54:54.652Z,16.50
2022-10-23T16:56:57.411Z,16.50
2022-10-23T16:59:00.674Z,16.50
2022-10-23T17:01:08.175Z,16.50
2022-10-23T17:03:10.939Z,16.50
2022-10-23T17:05:13.479Z,16.50
2022-10-23T17:07:16.086Z,16.50
2022-10-23T17:09:19.399Z,16.50
2022-10-23T17:11:28.584Z,16.50
2022-10-23T17:13:31.100Z,16.50
2022-10-23T17:15:33.659Z,16.50
2022-10-23T17:17:36.284Z,16.60
2022-10-23T17:19:46.048Z,16.60
2022-10-23T17:21:49.957Z,16.50
2022-10-23T17:23:53.589Z,16.50
2022-10-23T17:25:57.240Z,16.50
2022-10-23T17:27:59.721Z,16.50
2022-10-23T17:30:02.295Z,16.50
2022-10-23T17:32:06.032Z,16.50
2022-10-23T17:34:14.696Z,16.50
2022-10-23T17:36:19.170Z,16.50
2022-10-23T17:38:21.654Z,16.50
2022-10-23T17:40:27.384Z,16.50
2022-10-23T17:42:30.464Z,16.50
2022-10-23T17:44:33.092Z,16.50
2022-10-23T17:46:35.652Z,16.50
2022-10-23T17:48:39.645Z,16.40
2022-10-23T17:50:43.055Z,16.40
2022-10-23T17:52:47.380Z,16.40
2022-10-23T17:54:53.235Z,16.30
2022-10-23T17:56:58.380Z,16.30
2022-10-23T17:59:10.226Z,16.20
2022-10-23T18:01:17.828Z,16.20
2022-10-23T18:03:20.469Z,16.10
2022-10-23T18:05:23.103Z,16.10
2022-10-23T18:07:26.631Z,16.00
2022-10-23T18:09:30.076Z,15.90
2022-10-23T18:11:38.079Z,15.90
2022-10-23T18:13:40.646Z,15.80
2022-10-23T18:15:43.338Z,15.80
2022-10-23T18:17:46.294Z,15.80
2022-10-23T18:19:52.454Z,15.70
2022-10-23T18:21:55.174Z,15.60
2022-10-23T18:24:01.851Z,15.60
2022-10-23T18:26:05.507Z,15.50
2022-10-23T18:28:08.019Z,15.50
2022-10-23T18:30:11.462Z,15.50
2022-10-23T18:32:14.069Z,15.50
2022-10-23T18:34:23.813Z,15.50
2022-10-23T18:36:29.792Z,15.40
2022-10-23T18:38:33.092Z,15.40
2022-10-23T18:40:37.358Z,15.40
2022-10-23T18:42:39.945Z,15.40
2022-10-23T18:44:46.931Z,15.30
2022-10-23T18:46:50.719Z,15.30
2022-10-23T18:48:53.704Z,15.30
2022-10-23T18:50:56.405Z,15.30
2022-10-23T18:52:58.971Z,15.30
2022-10-23T18:55:01.608Z,15.30
2022-10-23T18:57:04.293Z,15.30
2022-10-23T18:59:12.250Z,15.30
2022-10-23T19:01:15.927Z,15.20
2022-10-23T19:03:18.718Z,15.20
2022-10-23T19:05:36.552Z,15.20
2022-10-23T19:07:44.217Z,15.20
2022-10-23T19:09:47.791Z,15.20
2022-10-23T19:12:15.283Z,15.10
2022-10-23T19:14:18.789Z,15.20
2022-10-23T19:16:39.801Z,15.10
2022-10-23T19:18:47.312Z,15.20
2022-10-23T19:20:50.822Z,15.10
2022-10-23T19:22:54.803Z,15.10
2022-10-23T19:25:15.959Z,15.10
2022-10-23T19:27:19.813Z,15.10
2022-10-23T19:29:26.627Z,15.10
2022-10-23T19:31:31.285Z,15.00
2022-10-23T19:33:36.214Z,15.00
2022-10-23T19:35:38.769Z,15.00
2022-10-23T19:37:41.703Z,15.00
2022-10-23T19:39:44.424Z,15.00
2022-10-23T19:41:47.417Z,15.00
2022-10-23T19:43:50.833Z,15.00
2022-10-23T19:45:53.386Z,14.90
2022-10-23T19:47:55.915Z,14.90
2022-10-23T19:49:58.595Z,14.90
2022-10-23T19:52:01.141Z,14.90
2022-10-23T19:54:04.949Z,14.90
2022-10-23T19:56:09.828Z,14.80
2022-10-23T19:58:12.425Z,14.80
2022-10-23T20:00:15.464Z,14.80
2022-10-23T20:02:20.958Z,14.80
2022-10-23T20:04:23.662Z,14.80
2022-10-23T20:06:34.610Z,14.80
2022-10-23T20:08:37.307Z,14.90
2022-10-23T20:10:43.577Z,14.80
2022-10-23T20:12:56.365Z,14.80
2022-10-23T20:14:59.822Z,14.80
2022-10-23T20:17:02.947Z,14.80
2022-10-23T20:19:09.692Z,14.80
2022-10-23T20:21:13.159Z,14.70
2022-10-23T20:23:15.733Z,14.70
2022-10-23T20:25:18.611Z,14.60
2022-10-23T20:27:21.180Z,14.60
2022-10-23T20:29:24.893Z,14.60
2022-10-23T20:31:28.241Z,14.50
2022-10-23T20:33:30.811Z,14.50
2022-10-23T20:35:43.243Z,14.50
2022-10-23T20:37:46.286Z,14.50
2022-10-23T20:39:49.149Z,14.50
2022-10-23T20:41:51.983Z,14.50
2022-10-23T20:43:56.150Z,14.50
2022-10-23T20:46:03.657Z,14.50
2022-10-23T20:48:06.633Z,14.50
2022-10-23T20:50:09.625Z,14.50
2022-10-23T20:52:12.324Z,14.60
2022-10-23T20:54:14.881Z,14.60
2022-10-23T20:56:33.030Z,14.70
2022-10-23T20:58:36.055Z,14.70
2022-10-23T21:00:38.622Z,14.80
2022-10-23T21:02:41.412Z,14.80
2022-10-23T21:04:44.133Z,14.80
2022-10-23T21:07:08.242Z,14.90
2022-10-23T21:11:16.858Z,15.00
2022-10-23T21:13:19.418Z,15.00
2022-10-23T21:15:21.991Z,15.00
2022-10-23T21:17:41.861Z,15.10
2022-10-23T21:19:44.448Z,15.00
2022-10-23T21:21:47.018Z,15.10
2022-10-23T21:23:52.519Z,15.10
2022-10-23T21:25:55.052Z,15.10
2022-10-23T21:27:57.632Z,15.10
2022-10-23T21:30:00.170Z,15.20
2022-10-23T21:32:02.819Z,15.10
2022-10-23T21:34:05.605Z,15.10
2022-10-23T21:36:16.942Z,15.10
2022-10-23T21:38:19.527Z,15.10
2022-10-23T21:40:22.148Z,15.10
2022-10-23T21:42:24.942Z,15.10
2022-10-23T21:44:27.546Z,15.10
2022-10-23T21:46:32.173Z,15.10
2022-10-23T21:48:34.738Z,15.20
2022-10-23T21:50:37.421Z,15.20
2022-10-23T21:52:40.376Z,15.10
2022-10-23T21:54:43.001Z,15.10
2022-10-23T21:56:49.196Z,15.20
2022-10-23T21:58:51.968Z,15.10
2022-10-23T22:00:54.591Z,15.10
2022-10-23T22:02:57.202Z,15.10
2022-10-23T22:04:59.847Z,15.10
2022-10-23T22:07:05.252Z,15.10
2022-10-23T22:09:08.728Z,15.10
2022-10-23T22:11:13.557Z,15.00
2022-10-23T22:13:16.098Z,15.00
2022-10-23T22:15:18.891Z,15.00
2022-10-23T22:17:21.406Z,14.90
2022-10-23T22:19:24.688Z,15.00
2022-10-23T22:21:30.023Z,14.90
2022-10-23T22:23:32.614Z,14.90
2022-10-23T22:25:38.794Z,15.00
2022-10-23T22:27:41.436Z,15.00
2022-10-23T22:29:44.056Z,14.90
2022-10-23T22:31:48.936Z,14.90
2022-10-23T22:33:53.948Z,14.90
2022-10-23T22:36:03.853Z,15.00
2022-10-23T22:38:06.389Z,14.90
2022-10-23T22:40:09.634Z,14.90
2022-10-23T22:42:12.200Z,14.90
2022-10-23T22:44:15.602Z,14.90
2022-10-23T22:46:19.290Z,14.80
2022-10-23T22:48:21.844Z,14.80
2022-10-23T22:50:24.440Z,14.80
2022-10-23T22:52:27.196Z,14.90
2022-10-23T22:54:31.289Z,14.90
2022-10-23T22:56:34.728Z,14.90
2022-10-23T22:58:37.578Z,14.90
2022-10-23T23:00:43.614Z,14.90
2022-10-23T23:02:46.419Z,14.90
2022-10-23T23:04:48.994Z,14.90
2022-10-23T23:06:52.744Z,14.90
2022-10-23T23:08:55.597Z,14.90
2022-10-23T23:10:58.952Z,15.00
2022-10-23T23:13:01.531Z,15.00
2022-10-23T23:15:04.926Z,15.00
2022-10-23T23:17:09.387Z,15.00
2022-10-23T23:19:12.345Z,15.00
2022-10-23T23:21:15.022Z,15.00
2022-10-23T23:23:18.125Z,15.00
2022-10-23T23:25:20.709Z,15.00
2022-10-23T23:27:23.187Z,15.00
2022-10-23T23:29:25.759Z,15.00
2022-10-23T23:31:28.344Z,15.00
2022-10-23T23:33:30.886Z,15.00
2022-10-23T23:35:34.019Z,15.00
2022-10-23T23:37:36.544Z,15.00
2022-10-23T23:39:39.091Z,15.00
2022-10-23T23:41:41.655Z,15.00
2022-10-23T23:43:45.432Z,15.00
2022-10-23T23:45:47.963Z,14.90
2022-10-23T23:47:50.496Z,15.00
2022-10-23T23:49:53.034Z,14.90
2022-10-23T23:51:56.380Z,14.90
2022-10-23T23:53:58.868Z,14.90
2022-10-23T23:56:01.451Z,14.90
2022-10-23T23:58:04.833Z,14.90
